Time;durP1;ratioP1;P1;durP2;ratioP2;P2;SDS_P1;SDS_P2;PMS_P1;PMS_P2;Temp;Humidity;BMP_temperature;BMP_pressure;BME280_temperature;BME280_humidity;BME280_pressure;Samples;Min_cycle;Max_cycle;Signal;HPM_P1;HPM_P2
2023/03/11 00:01:41;;;;;;;;;;;;;;;7.15;87.78;94169.52;109166;1272;22495;-81
2023/03/11 00:04:10;;;;;;;;;;;;;;;7.15;87.80;94169.44;109141;1272;62349;-81
2023/03/11 00:06:40;;;;;;;;;;;;;;;7.14;87.95;94174.52;109112;1273;22487;-81
2023/03/11 00:09:10;;;;;;;;;;;;;;;7.15;87.88;94178.17;109128;1274;23071;-82
2023/03/11 00:11:39;;;;;;;;;;;;;;;7.17;87.82;94185.33;109157;1270;24881;-81
2023/03/11 00:14:09;;;;;;;;;;;;;;;7.18;87.82;94177.77;109101;1274;22494;-81
2023/03/11 00:16:38;;;;;;;;;;;;;;;7.19;87.77;94177.38;109158;1273;22533;-81
2023/03/11 00:19:07;;;;;;;;;;;;;;;7.23;87.76;94177.23;109189;1274;22522;-81
2023/03/11 00:21:37;;;;;;;;;;;;;;;7.27;87.69;94171.18;109119;1274;22499;-81
2023/03/11 00:24:07;;;;;;;;;;;;;;;7.31;87.66;94167.13;109122;1267;22525;-81
2023/03/11 00:26:37;;;;;;;;;;;;;;;7.33;87.50;94161.56;109256;1274;22480;-81
2023/03/11 00:29:06;;;;;;;;;;;;;;;7.34;87.23;94154.48;109140;1273;22502;-81
2023/03/11 00:31:36;;;;;;;;;;;;;;;7.35;87.20;94159.10;109209;1274;22539;-81
2023/03/11 00:34:05;;;;;;;;;;;;;;;7.39;87.20;94160.29;109121;1273;22555;-81
2023/03/11 00:36:34;;;;;;;;;;;;;;;7.40;87.02;94161.39;109132;1272;22472;-82
2023/03/11 00:39:05;;;;;;;;;;;;;;;7.40;87.07;94162.20;109193;1262;22712;-81
2023/03/11 00:41:35;;;;;;;;;;;;;;;7.40;86.84;94162.36;109180;1274;24982;-81
2023/03/11 00:44:04;;;;;;;;;;;;;;;7.39;86.66;94160.98;109143;1274;23285;-81
2023/03/11 00:46:33;;;;;;;;;;;;;;;7.40;86.67;94161.33;109139;1266;25429;-81
2023/03/11 00:49:03;;;;;;;;;;;;;;;7.38;86.48;94153.20;109181;1274;22490;-81
2023/03/11 00:51:32;;;;;;;;;;;;;;;7.37;86.21;94149.61;109105;1266;22491;-82
2023/03/11 00:54:01;;;;;;;;;;;;;;;7.35;86.08;94147.81;109130;1274;46747;-81
2023/03/11 00:56:31;;;;;;;;;;;;;;;7.34;86.09;94144.14;109151;1274;25468;-81
2023/03/11 00:59:01;;;;;;;;;;;;;;;7.32;85.90;94133.38;109160;1274;25239;-81
2023/03/11 01:01:30;;;;;;;;;;;;;;;7.32;86.01;94132.27;109210;1272;22500;-81
2023/03/11 01:03:59;;;;;;;;;;;;;;;7.34;85.99;94130.59;109143;1274;22472;-81
2023/03/11 01:06:29;;;;;;;;;;;;;;;7.33;85.86;94129.04;109194;1272;22599;-82
2023/03/11 01:08:58;;;;;;;;;;;;;;;7.29;85.83;94120.73;109138;1275;22538;-81
2023/03/11 01:11:28;;;;;;;;;;;;;;;7.27;86.18;94118.05;109135;1274;24180;-82
2023/03/11 01:13:57;;;;;;;;;;;;;;;7.33;86.34;94117.80;109190;1273;22526;-81
2023/03/11 01:16:26;;;;;;;;;;;;;;;7.39;86.12;94108.66;109187;1274;22522;-81
2023/03/11 01:18:56;;;;;;;;;;;;;;;7.45;85.93;94114.88;109187;1274;22517;-81
2023/03/11 01:21:25;;;;;;;;;;;;;;;7.47;85.86;94109.70;109173;1273;22495;-81
2023/03/11 01:23:55;;;;;;;;;;;;;;;7.49;85.68;94110.53;109138;1272;22607;-81
2023/03/11 01:26:24;;;;;;;;;;;;;;;7.51;85.58;94113.39;109138;1274;22538;-82
2023/03/11 01:28:54;;;;;;;;;;;;;;;7.53;85.50;94118.35;109150;1273;22499;-81
2023/03/11 01:31:23;;;;;;;;;;;;;;;7.57;85.34;94111.63;109150;1270;24216;-81
2023/03/11 01:33:53;;;;;;;;;;;;;;;7.59;85.19;94114.27;109083;1275;23623;-82
2023/03/11 01:36:22;;;;;;;;;;;;;;;7.60;84.94;94108.63;109155;1266;22486;-81
2023/03/11 01:38:51;;;;;;;;;;;;;;;7.61;84.81;94107.08;109075;1274;22453;-81
2023/03/11 01:41:21;;;;;;;;;;;;;;;7.56;84.83;94106.48;109196;1274;22840;-81
2023/03/11 01:43:54;;;;;;;;;;;;;;;7.51;84.92;94110.45;109106;1274;22507;-81
2023/03/11 01:46:24;;;;;;;;;;;;;;;7.47;84.74;94104.66;109122;1274;22483;-81
2023/03/11 01:48:55;;;;;;;;;;;;;;;7.50;84.78;94109.65;109179;1272;22590;-81
2023/03/11 01:51:27;;;;;;;;;;;;;;;7.52;84.82;94109.58;109170;1274;22498;-81
2023/03/11 01:53:57;;;;;;;;;;;;;;;7.51;84.74;94102.83;109162;1273;22507;-81
2023/03/11 01:56:27;;;;;;;;;;;;;;;7.52;84.69;94104.84;109153;1274;22489;-81
2023/03/11 01:58:56;;;;;;;;;;;;;;;7.51;84.60;94102.02;109167;1272;22611;-81
2023/03/11 02:01:26;;;;;;;;;;;;;;;7.50;84.70;94107.91;109172;1273;22528;-81
2023/03/11 02:03:58;;;;;;;;;;;;;;;7.47;84.54;94103.29;107523;1274;2089554;-81
2023/03/11 02:06:27;;;;;;;;;;;;;;;7.45;84.62;94097.42;109198;1270;22698;-81
2023/03/11 02:08:56;;;;;;;;;;;;;;;7.44;84.53;94093.77;109133;1273;24270;-81
2023/03/11 02:11:27;;;;;;;;;;;;;;;7.44;84.42;94094.44;109142;1273;22936;-81
2023/03/11 02:13:58;;;;;;;;;;;;;;;7.43;84.55;94097.34;109165;1273;22436;-82
2023/03/11 02:16:28;;;;;;;;;;;;;;;7.41;84.52;94101.95;109144;1273;22542;-81
2023/03/11 02:18:59;;;;;;;;;;;;;;;7.40;84.46;94098.05;109188;1274;22704;-81
2023/03/11 02:21:29;;;;;;;;;;;;;;;7.39;84.63;94098.48;109177;1273;24949;-82
2023/03/11 02:24:02;;;;;;;;;;;;;;;7.38;84.67;94105.45;109138;1273;23716;-81
2023/03/11 02:26:35;;;;;;;;;;;;;;;7.35;85.29;94114.08;109158;1267;24220;-82
2023/03/11 02:29:06;;;;;;;;;;;;;;;7.26;86.16;94125.09;109141;1274;25265;-82
2023/03/11 02:31:37;;;;;;;;;;;;;;;7.14;86.75;94123.42;109136;1273;22458;-81
2023/03/11 02:34:08;;;;;;;;;;;;;;;6.86;86.96;94129.38;109108;1274;46099;-82
2023/03/11 02:36:38;;;;;;;;;;;;;;;6.58;87.57;94126.58;109122;1273;22608;-81
2023/03/11 02:39:09;;;;;;;;;;;;;;;6.38;88.26;94138.80;109148;1273;22513;-81
2023/03/11 02:41:40;;;;;;;;;;;;;;;6.23;88.18;94127.11;109146;1274;22603;-81
2023/03/11 02:44:10;;;;;;;;;;;;;;;6.10;88.28;94129.66;109104;1274;22518;-81
2023/03/11 02:46:41;;;;;;;;;;;;;;;6.00;88.27;94126.36;109178;1271;22488;-81
2023/03/11 02:49:11;;;;;;;;;;;;;;;5.93;87.73;94130.41;109171;1274;22554;-81
2023/03/11 02:51:41;;;;;;;;;;;;;;;5.86;87.28;94121.36;109173;1274;22562;-82
2023/03/11 02:54:10;;;;;;;;;;;;;;;5.82;87.15;94135.90;109120;1274;45300;-81
2023/03/11 02:56:39;;;;;;;;;;;;;;;5.76;87.08;94139.64;109179;1267;22485;-82
2023/03/11 02:59:09;;;;;;;;;;;;;;;5.74;86.58;94144.11;109206;1274;22503;-82
2023/03/11 03:01:38;;;;;;;;;;;;;;;5.71;86.42;94137.74;109131;1273;22490;-81
2023/03/11 03:04:08;;;;;;;;;;;;;;;5.70;85.08;94145.14;109128;1274;41097;-82
2023/03/11 03:06:37;;;;;;;;;;;;;;;5.68;85.24;94144.05;109007;1273;176066;-82
2023/03/11 03:09:07;;;;;;;;;;;;;;;5.63;85.43;94143.02;109134;1274;23664;-82
2023/03/11 03:11:36;;;;;;;;;;;;;;;5.60;85.73;94143.94;109140;1273;22624;-82
2023/03/11 03:14:05;;;;;;;;;;;;;;;5.56;85.84;94144.59;109125;1273;22544;-82
2023/03/11 03:16:35;;;;;;;;;;;;;;;5.49;85.69;94142.22;109138;1267;22436;-82
2023/03/11 03:19:04;;;;;;;;;;;;;;;5.41;85.87;94148.48;109129;1273;22511;-82
2023/03/11 03:21:34;;;;;;;;;;;;;;;5.39;86.06;94158.67;109186;1273;22499;-82
2023/03/11 03:24:03;;;;;;;;;;;;;;;5.37;86.03;94160.48;109157;1274;22503;-82
2023/03/11 03:26:33;;;;;;;;;;;;;;;5.32;86.42;94155.59;109227;1271;22500;-82
2023/03/11 03:29:02;;;;;;;;;;;;;;;5.31;86.73;94166.05;109060;1273;22513;-82
2023/03/11 03:31:32;;;;;;;;;;;;;;;5.30;86.86;94159.84;109143;1274;22489;-82
2023/03/11 03:34:01;;;;;;;;;;;;;;;5.28;87.00;94155.86;109054;1274;22789;-82
2023/03/11 03:36:30;;;;;;;;;;;;;;;5.28;87.01;94148.78;109110;1273;22497;-82
2023/03/11 03:39:00;;;;;;;;;;;;;;;5.29;86.91;94144.45;109097;1273;25213;-82
2023/03/11 03:41:29;;;;;;;;;;;;;;;5.26;86.96;94134.80;109105;1274;22574;-82
2023/03/11 03:43:59;;;;;;;;;;;;;;;5.25;86.69;94127.48;109056;1274;22487;-82
2023/03/11 03:46:28;;;;;;;;;;;;;;;5.26;86.25;94127.92;109056;1270;25229;-81
2023/03/11 03:48:57;;;;;;;;;;;;;;;5.28;85.84;94133.55;109104;1274;22499;-82
2023/03/11 03:51:27;;;;;;;;;;;;;;;5.29;85.27;94120.76;109103;1267;24213;-81
2023/03/11 03:53:56;;;;;;;;;;;;;;;5.28;84.79;94113.59;109061;1274;63058;-82
2023/03/11 03:56:25;;;;;;;;;;;;;;;5.25;84.56;94125.11;109099;1274;22556;-82
2023/03/11 03:58:54;;;;;;;;;;;;;;;5.24;84.54;94121.89;109080;1274;22445;-82
2023/03/11 04:01:24;;;;;;;;;;;;;;;5.23;84.46;94126.75;109060;1274;22430;-82
2023/03/11 04:03:54;;;;;;;;;;;;;;;5.21;84.03;94121.45;109141;1267;22503;-82
2023/03/11 04:06:24;;;;;;;;;;;;;;;5.20;83.74;94115.11;109130;1273;22449;-82
2023/03/11 04:08:54;;;;;;;;;;;;;;;5.21;83.77;94112.67;109134;1267;23785;-82
2023/03/11 04:11:24;;;;;;;;;;;;;;;5.20;83.76;94113.48;109118;1273;24344;-82
2023/03/11 04:13:53;;;;;;;;;;;;;;;5.18;83.29;94109.80;108997;1274;22515;-83
2023/03/11 04:16:23;;;;;;;;;;;;;;;5.18;83.57;94113.48;109077;1274;23311;-82
2023/03/11 04:18:53;;;;;;;;;;;;;;;5.16;83.23;94111.72;109098;1274;22690;-82
2023/03/11 04:21:22;;;;;;;;;;;;;;;5.14;82.84;94110.52;109089;1274;22496;-82
2023/03/11 04:23:51;;;;;;;;;;;;;;;5.12;82.52;94114.19;109126;1274;24260;-82
2023/03/11 04:26:21;;;;;;;;;;;;;;;5.10;82.52;94102.33;109178;1273;25478;-82
2023/03/11 04:28:50;;;;;;;;;;;;;;;5.08;82.29;94100.80;109144;1273;22505;-82
2023/03/11 04:31:20;;;;;;;;;;;;;;;5.08;81.97;94096.30;109077;1274;25249;-82
2023/03/11 04:33:49;;;;;;;;;;;;;;;5.07;81.63;94094.90;109131;1273;22498;-82
2023/03/11 04:36:19;;;;;;;;;;;;;;;5.03;81.48;94094.50;109193;1274;22508;-82
2023/03/11 04:38:48;;;;;;;;;;;;;;;4.99;80.90;94081.46;109210;1274;22492;-81
2023/03/11 04:41:18;;;;;;;;;;;;;;;4.96;80.44;94082.16;109104;1274;23242;-82
2023/03/11 04:43:48;;;;;;;;;;;;;;;4.95;80.17;94082.88;109021;1274;24346;-82
2023/03/11 04:46:17;;;;;;;;;;;;;;;4.94;80.28;94069.95;109156;1273;22628;-82
2023/03/11 04:48:46;;;;;;;;;;;;;;;4.95;79.93;94063.02;109148;1273;25203;-82
2023/03/11 04:51:16;;;;;;;;;;;;;;;4.94;79.61;94067.84;109169;1273;24159;-82
2023/03/11 04:53:45;;;;;;;;;;;;;;;4.93;79.47;94068.02;109115;1270;22545;-82
2023/03/11 04:56:14;;;;;;;;;;;;;;;4.91;78.98;94068.20;109097;1266;22476;-82
2023/03/11 04:58:43;;;;;;;;;;;;;;;4.90;79.02;94067.03;109161;1274;22695;-82
2023/03/11 05:01:13;;;;;;;;;;;;;;;4.87;78.76;94060.95;109158;1274;22856;-82
2023/03/11 05:03:42;;;;;;;;;;;;;;;4.87;78.17;94060.61;109121;1270;22525;-81
2023/03/11 05:06:12;;;;;;;;;;;;;;;4.86;78.14;94068.17;109131;1274;22512;-82
2023/03/11 05:08:41;;;;;;;;;;;;;;;4.83;77.94;94064.83;109150;1274;22458;-82
2023/03/11 05:11:11;;;;;;;;;;;;;;;4.83;77.81;94069.61;109103;1274;22571;-82
2023/03/11 05:13:40;;;;;;;;;;;;;;;4.81;77.47;94062.20;109094;1273;55978;-82
2023/03/11 05:16:10;;;;;;;;;;;;;;;4.79;77.45;94070.27;109168;1267;22441;-81
2023/03/11 05:18:39;;;;;;;;;;;;;;;4.76;77.54;94077.80;109090;1274;22636;-81
2023/03/11 05:21:09;;;;;;;;;;;;;;;4.74;77.62;94076.59;109122;1273;25255;-82
2023/03/11 05:23:38;;;;;;;;;;;;;;;4.73;77.39;94070.28;109111;1273;22543;-81
2023/03/11 05:26:08;;;;;;;;;;;;;;;4.72;77.26;94064.27;109154;1267;22494;-82
2023/03/11 05:28:37;;;;;;;;;;;;;;;4.71;77.15;94063.45;109154;1267;22492;-81
2023/03/11 05:31:10;;;;;;;;;;;;;;;4.72;76.59;94057.29;109126;1267;22635;-82
2023/03/11 05:33:39;;;;;;;;;;;;;;;4.71;76.99;94064.20;109131;1274;23112;-81
2023/03/11 05:36:10;;;;;;;;;;;;;;;4.68;77.16;94063.85;109147;1273;22500;-82
2023/03/11 05:38:39;;;;;;;;;;;;;;;4.67;76.98;94060.36;109101;1274;22513;-81
2023/03/11 05:41:09;;;;;;;;;;;;;;;4.68;76.92;94066.69;109160;1270;22504;-82
2023/03/11 05:43:38;;;;;;;;;;;;;;;4.69;76.97;94062.30;109020;1274;60663;-81
2023/03/11 05:46:08;;;;;;;;;;;;;;;4.69;77.01;94067.27;109157;1274;23898;-82
2023/03/11 05:48:38;;;;;;;;;;;;;;;4.70;76.87;94071.42;109154;1273;22518;-82
2023/03/11 05:51:08;;;;;;;;;;;;;;;4.68;76.69;94069.99;109138;1268;22543;-82
2023/03/11 05:53:38;;;;;;;;;;;;;;;4.67;76.97;94069.55;109099;1270;25261;-82
2023/03/11 05:56:08;;;;;;;;;;;;;;;4.68;76.91;94064.86;109093;1274;23603;-82
2023/03/11 05:58:37;;;;;;;;;;;;;;;4.66;76.97;94077.03;109133;1274;24293;-82
2023/03/11 06:01:10;;;;;;;;;;;;;;;4.64;77.17;94087.71;109141;1274;22540;-81
2023/03/11 06:03:40;;;;;;;;;;;;;;;4.63;77.35;94083.20;109138;1267;22535;-81
2023/03/11 06:06:11;;;;;;;;;;;;;;;4.60;77.26;94094.64;109058;1273;25385;-82
2023/03/11 06:08:44;;;;;;;;;;;;;;;4.60;77.37;94093.20;109079;1274;22663;-81
2023/03/11 06:11:14;;;;;;;;;;;;;;;4.62;77.58;94095.52;109077;1273;25396;-81
2023/03/11 06:13:44;;;;;;;;;;;;;;;4.64;77.71;94094.65;109060;1273;22490;-81
2023/03/11 06:16:13;;;;;;;;;;;;;;;4.65;77.76;94092.27;109083;1274;22680;-81
2023/03/11 06:18:43;;;;;;;;;;;;;;;4.64;77.68;94101.27;109070;1273;22491;-81
2023/03/11 06:21:15;;;;;;;;;;;;;;;4.64;77.48;94102.22;109091;1270;22571;-81
2023/03/11 06:23:45;;;;;;;;;;;;;;;4.64;77.08;94100.27;109079;1273;22507;-81
2023/03/11 06:26:16;;;;;;;;;;;;;;;4.66;76.95;94107.38;109060;1273;22570;-81
2023/03/11 06:28:45;;;;;;;;;;;;;;;4.67;77.20;94119.79;109097;1273;22707;-81
2023/03/11 06:31:16;;;;;;;;;;;;;;;4.64;77.43;94145.20;109104;1270;22532;-82
2023/03/11 06:33:46;;;;;;;;;;;;;;;4.25;76.53;94157.79;109041;1273;36949;-81
2023/03/11 06:36:16;;;;;;;;;;;;;;;3.33;78.15;94138.34;109109;1273;22659;-82
2023/03/11 06:38:47;;;;;;;;;;;;;;;2.65;80.57;94145.53;109083;1273;22523;-82
2023/03/11 06:41:16;;;;;;;;;;;;;;;2.32;82.46;94168.84;109087;1273;22609;-82
2023/03/11 06:43:46;;;;;;;;;;;;;;;2.20;83.67;94180.47;108999;1273;22640;-82
2023/03/11 06:46:17;;;;;;;;;;;;;;;2.17;84.31;94189.66;109058;1267;25294;-83
2023/03/11 06:48:50;;;;;;;;;;;;;;;2.15;84.90;94201.71;109085;1270;22570;-82
2023/03/11 06:51:20;;;;;;;;;;;;;;;2.14;85.59;94208.48;109051;1269;22719;-82
2023/03/11 06:53:51;;;;;;;;;;;;;;;2.09;85.91;94211.83;109045;1273;22474;-81
2023/03/11 06:56:21;;;;;;;;;;;;;;;2.09;86.27;94223.42;109084;1266;22496;-81
2023/03/11 06:58:51;;;;;;;;;;;;;;;2.07;85.96;94227.48;109075;1273;24087;-81
2023/03/11 07:01:21;;;;;;;;;;;;;;;2.04;85.72;94229.63;109165;1267;23888;-82
2023/03/11 07:03:51;;;;;;;;;;;;;;;2.05;85.78;94234.84;109080;1266;22498;-81
2023/03/11 07:06:22;;;;;;;;;;;;;;;2.10;85.28;94236.12;109089;1273;22825;-81
2023/03/11 07:08:52;;;;;;;;;;;;;;;2.12;85.00;94240.29;109106;1266;22449;-81
2023/03/11 07:11:23;;;;;;;;;;;;;;;2.14;84.65;94237.48;109047;1273;22881;-81
2023/03/11 07:13:54;;;;;;;;;;;;;;;2.15;84.28;94239.05;109020;1273;25265;-82
2023/03/11 07:16:26;;;;;;;;;;;;;;;2.16;83.53;94232.43;109089;1273;22639;-81
2023/03/11 07:18:57;;;;;;;;;;;;;;;2.16;82.95;94233.89;109074;1273;22459;-82
2023/03/11 07:21:28;;;;;;;;;;;;;;;2.15;82.28;94238.66;109108;1273;22489;-82
2023/03/11 07:23:59;;;;;;;;;;;;;;;2.16;81.63;94240.18;109082;1268;34731;-82
2023/03/11 07:26:29;;;;;;;;;;;;;;;2.15;80.54;94244.02;109077;1273;24525;-82
2023/03/11 07:29:00;;;;;;;;;;;;;;;2.15;79.70;94242.48;109077;1267;22524;-82
2023/03/11 07:31:31;;;;;;;;;;;;;;;2.15;79.18;94236.05;109077;1274;22516;-82
2023/03/11 07:34:02;;;;;;;;;;;;;;;2.15;79.12;94250.33;109078;1267;22502;-82
2023/03/11 07:36:32;;;;;;;;;;;;;;;2.15;78.39;94245.73;109088;1268;22642;-81
2023/03/11 07:39:04;;;;;;;;;;;;;;;2.14;78.46;94235.82;109083;1266;22499;-82
2023/03/11 07:41:34;;;;;;;;;;;;;;;2.12;78.41;94242.85;109136;1267;25396;-82
2023/03/11 07:44:04;;;;;;;;;;;;;;;2.08;78.34;94251.82;109041;1274;22516;-82
2023/03/11 07:46:34;;;;;;;;;;;;;;;2.05;78.42;94252.13;109089;1267;23784;-82
2023/03/11 07:49:04;;;;;;;;;;;;;;;2.04;78.49;94251.73;109108;1273;23707;-83
2023/03/11 07:51:36;;;;;;;;;;;;;;;1.96;77.70;94245.88;109071;1267;23754;-82
2023/03/11 07:54:06;;;;;;;;;;;;;;;1.86;78.24;94257.56;109079;1273;22518;-82
2023/03/11 07:56:37;;;;;;;;;;;;;;;1.77;78.16;94259.19;109080;1270;25265;-82
2023/03/11 07:59:07;;;;;;;;;;;;;;;1.73;78.44;94273.13;109131;1273;25272;-82
2023/03/11 08:01:39;;;;;;;;;;;;;;;1.70;78.14;94286.91;109118;1270;25260;-82
2023/03/11 08:04:11;;;;;;;;;;;;;;;1.68;78.31;94268.10;109073;1273;24212;-83
2023/03/11 08:06:41;;;;;;;;;;;;;;;1.64;78.55;94285.66;109081;1268;22613;-83
2023/03/11 08:09:11;;;;;;;;;;;;;;;1.58;78.84;94286.31;109085;1273;22436;-82
2023/03/11 08:11:41;;;;;;;;;;;;;;;1.51;79.41;94291.11;109073;1273;22489;-83
2023/03/11 08:14:10;;;;;;;;;;;;;;;1.47;79.75;94303.55;109130;1267;23294;-82
2023/03/11 08:16:41;;;;;;;;;;;;;;;1.46;79.89;94290.30;109093;1273;22498;-82
2023/03/11 08:19:13;;;;;;;;;;;;;;;1.47;80.10;94312.42;109095;1267;22643;-81
2023/03/11 08:21:43;;;;;;;;;;;;;;;1.50;80.28;94302.58;109095;1273;23014;-82
2023/03/11 08:24:13;;;;;;;;;;;;;;;1.57;80.55;94305.06;109043;1273;23112;-82
2023/03/11 08:26:43;;;;;;;;;;;;;;;1.65;80.68;94312.43;109095;1274;24324;-82
2023/03/11 08:29:12;;;;;;;;;;;;;;;1.70;80.47;94318.04;109067;1266;22625;-82
2023/03/11 08:31:42;;;;;;;;;;;;;;;1.68;80.30;94318.45;109086;1273;22525;-82
2023/03/11 08:34:12;;;;;;;;;;;;;;;1.68;80.70;94334.91;109098;1266;23207;-82
2023/03/11 08:36:42;;;;;;;;;;;;;;;1.71;80.62;94330.61;109059;1273;22506;-81
2023/03/11 08:39:12;;;;;;;;;;;;;;;1.74;81.04;94334.02;109072;1269;23823;-81
2023/03/11 08:41:42;;;;;;;;;;;;;;;1.71;80.85;94335.57;109103;1267;22843;-83
2023/03/11 08:44:11;;;;;;;;;;;;;;;1.67;80.70;94327.34;109049;1273;23992;-81
2023/03/11 08:46:41;;;;;;;;;;;;;;;1.64;80.62;94343.89;109051;1266;22487;-81
2023/03/11 08:49:11;;;;;;;;;;;;;;;1.63;80.98;94346.92;109079;1273;23813;-81
2023/03/11 08:51:41;;;;;;;;;;;;;;;1.60;80.94;94352.30;109072;1273;22541;-81
2023/03/11 08:54:10;;;;;;;;;;;;;;;1.59;81.17;94350.75;109070;1262;22588;-81
2023/03/11 08:56:40;;;;;;;;;;;;;;;1.60;81.22;94354.91;109038;1273;22544;-81
2023/03/11 08:59:10;;;;;;;;;;;;;;;1.61;81.07;94363.98;109071;1273;22496;-81
2023/03/11 09:01:41;;;;;;;;;;;;;;;1.62;81.22;94367.31;109089;1273;23239;-82
2023/03/11 09:04:11;;;;;;;;;;;;;;;1.64;80.91;94366.51;109051;1273;22426;-81
2023/03/11 09:06:43;;;;;;;;;;;;;;;1.71;80.73;94373.34;109104;1273;25723;-81
2023/03/11 09:09:13;;;;;;;;;;;;;;;1.77;80.85;94383.50;109068;1267;22957;-81
2023/03/11 09:11:43;;;;;;;;;;;;;;;1.89;80.41;94375.55;109048;1270;22828;-81
2023/03/11 09:14:12;;;;;;;;;;;;;;;1.90;79.86;94380.98;109055;1267;23672;-81
2023/03/11 09:16:42;;;;;;;;;;;;;;;1.83;79.51;94389.14;109057;1273;24451;-80
2023/03/11 09:19:12;;;;;;;;;;;;;;;1.76;78.92;94389.42;109076;1273;25456;-81
2023/03/11 09:21:42;;;;;;;;;;;;;;;1.76;79.37;94393.98;109089;1273;22513;-81
2023/03/11 09:24:11;;;;;;;;;;;;;;;1.81;78.87;94383.31;109054;1273;22436;-80
2023/03/11 09:26:43;;;;;;;;;;;;;;;1.82;78.25;94394.73;109090;1270;25429;-81
2023/03/11 09:29:13;;;;;;;;;;;;;;;1.83;78.39;94403.77;109085;1272;22511;-80
2023/03/11 09:31:43;;;;;;;;;;;;;;;1.81;78.43;94395.27;109095;1270;22501;-81
2023/03/11 09:34:13;;;;;;;;;;;;;;;1.76;77.84;94394.44;109066;1266;23664;-80
2023/03/11 09:36:42;;;;;;;;;;;;;;;1.71;77.91;94406.52;109078;1267;23613;-81
2023/03/11 09:39:12;;;;;;;;;;;;;;;1.67;78.15;94409.40;109084;1273;22499;-80
2023/03/11 09:41:46;;;;;;;;;;;;;;;1.69;77.91;94415.77;109106;1274;22540;-81
2023/03/11 09:44:19;;;;;;;;;;;;;;;1.77;78.11;94416.69;109024;1273;22579;-80
2023/03/11 09:47:06;;;;;;;;;;;;;;;1.92;77.73;94421.08;109125;1267;23403;-80
2023/03/11 09:49:42;;;;;;;;;;;;;;;1.94;76.38;94415.82;109080;1273;22618;-82
2023/03/11 09:52:12;;;;;;;;;;;;;;;1.94;76.31;94433.70;109072;1273;25906;-80
2023/03/11 09:54:43;;;;;;;;;;;;;;;1.99;76.65;94425.77;109039;1270;80750;-80
2023/03/11 09:57:14;;;;;;;;;;;;;;;1.99;76.84;94431.37;109091;1273;22530;-80
2023/03/11 09:59:45;;;;;;;;;;;;;;;2.00;77.34;94435.27;109112;1273;22562;-80
2023/03/11 10:02:18;;;;;;;;;;;;;;;2.11;78.14;94438.70;109135;1273;22539;-81
2023/03/11 10:04:51;;;;;;;;;;;;;;;2.39;78.14;94433.64;109057;1273;22627;-80
2023/03/11 10:07:23;;;;;;;;;;;;;;;2.59;77.33;94430.14;109113;1273;22488;-80
2023/03/11 10:09:55;;;;;;;;;;;;;;;2.51;76.78;94441.66;109110;1274;22540;-80
2023/03/11 10:12:32;;;;;;;;;;;;;;;2.29;77.33;94443.94;109071;1273;22572;-81
2023/03/11 10:15:10;;;;;;;;;;;;;;;2.08;78.39;94445.31;109034;1273;22769;-80
2023/03/11 10:17:49;;;;;;;;;;;;;;;1.96;79.34;94453.85;109071;1269;22495;-80
2023/03/11 10:20:22;;;;;;;;;;;;;;;1.93;80.96;94466.80;109072;1273;25395;-80
2023/03/11 10:22:58;;;;;;;;;;;;;;;1.78;81.29;94481.83;109059;1273;22495;-80
2023/03/11 10:25:28;;;;;;;;;;;;;;;1.74;81.59;94470.27;109030;1273;25168;-80
2023/03/11 10:28:01;;;;;;;;;;;;;;;1.88;81.26;94463.86;109090;1273;22530;-81
2023/03/11 10:30:33;;;;;;;;;;;;;;;2.05;79.58;94445.03;109113;1273;22566;-81
2023/03/11 10:33:09;;;;;;;;;;;;;;;2.04;78.84;94466.01;109104;1269;25916;-82
2023/03/11 10:35:40;;;;;;;;;;;;;;;1.97;78.55;94490.36;109093;1273;22909;-82
2023/03/11 10:38:14;;;;;;;;;;;;;;;1.85;79.96;94496.34;109085;1273;22755;-84
2023/03/11 10:40:45;;;;;;;;;;;;;;;1.60;80.68;94508.49;109111;1274;22653;-81
2023/03/11 10:43:16;;;;;;;;;;;;;;;1.55;81.48;94515.54;109055;1267;23744;-82
2023/03/11 10:45:47;;;;;;;;;;;;;;;1.61;81.83;94532.94;109122;1273;22518;-82
2023/03/11 10:48:17;;;;;;;;;;;;;;;1.53;80.21;94523.17;109101;1268;22500;-81
2023/03/11 10:50:51;;;;;;;;;;;;;;;1.42;79.60;94531.71;109079;1273;22488;-82
2023/03/11 10:53:21;;;;;;;;;;;;;;;1.39;80.18;94542.53;109084;1272;22458;-82
2023/03/11 10:55:51;;;;;;;;;;;;;;;1.42;80.00;94530.89;109095;1267;22495;-82
2023/03/11 10:58:22;;;;;;;;;;;;;;;1.33;79.39;94535.58;109108;1270;22464;-82
2023/03/11 11:01:02;;;;;;;;;;;;;;;1.31;80.20;94550.90;109145;1273;22640;-82
2023/03/11 11:03:32;;;;;;;;;;;;;;;1.38;79.46;94554.96;109076;1269;22448;-82
2023/03/11 11:06:04;;;;;;;;;;;;;;;1.37;79.35;94547.30;109084;1274;22519;-82
2023/03/11 11:08:34;;;;;;;;;;;;;;;1.38;79.22;94558.36;109115;1266;22622;-81
2023/03/11 11:11:20;;;;;;;;;;;;;;;1.49;79.86;94552.14;109103;1273;22443;-81
2023/03/11 11:13:59;;;;;;;;;;;;;;;1.47;80.10;94557.16;109055;1266;41097;-82
2023/03/11 11:16:29;;;;;;;;;;;;;;;1.46;80.19;94567.04;109094;1273;23365;-81
2023/03/11 11:19:02;;;;;;;;;;;;;;;1.40;80.72;94571.04;109081;1266;22540;-81
2023/03/11 11:21:34;;;;;;;;;;;;;;;1.31;81.73;94590.00;109106;1273;22437;-82
2023/03/11 11:24:11;;;;;;;;;;;;;;;1.22;82.04;94582.05;109014;1271;33180;-81
2023/03/11 11:26:40;;;;;;;;;;;;;;;1.02;82.31;94588.98;109089;1273;22521;-81
2023/03/11 11:29:14;;;;;;;;;;;;;;;0.88;82.72;94594.92;109104;1273;22528;-82
2023/03/11 11:31:45;;;;;;;;;;;;;;;0.79;82.83;94600.54;109089;1270;22500;-82
2023/03/11 11:34:27;;;;;;;;;;;;;;;0.73;83.25;94595.96;109072;1266;22533;-81
2023/03/11 11:36:58;;;;;;;;;;;;;;;0.66;84.07;94609.85;109126;1273;22506;-82
2023/03/11 11:39:30;;;;;;;;;;;;;;;0.55;85.09;94609.67;109102;1269;22539;-81
2023/03/11 11:42:01;;;;;;;;;;;;;;;0.46;86.14;94608.54;109078;1273;22602;-82
2023/03/11 11:44:32;;;;;;;;;;;;;;;0.39;86.71;94624.39;109067;1274;22510;-83
2023/03/11 11:47:08;;;;;;;;;;;;;;;0.36;87.13;94612.83;109112;1268;24049;-82
2023/03/11 11:49:50;;;;;;;;;;;;;;;0.30;87.12;94628.07;109097;1270;22508;-84
2023/03/11 11:52:21;;;;;;;;;;;;;;;0.26;87.60;94633.63;109123;1269;22538;-82
2023/03/11 11:54:52;;;;;;;;;;;;;;;0.20;88.20;94645.73;109047;1274;22533;-81
2023/03/11 11:57:22;;;;;;;;;;;;;;;0.16;88.60;94648.45;109069;1273;22968;-82
2023/03/11 11:59:52;;;;;;;;;;;;;;;0.18;88.99;94646.31;109102;1268;22772;-82
2023/03/11 12:02:33;;;;;;;;;;;;;;;0.17;88.67;94646.47;109118;1273;23272;-81
2023/03/11 12:05:07;;;;;;;;;;;;;;;0.15;88.96;94661.99;109085;1273;22432;-81
2023/03/11 12:07:46;;;;;;;;;;;;;;;0.14;89.31;94653.23;109092;1273;22616;-81
2023/03/11 12:10:21;;;;;;;;;;;;;;;0.12;89.30;94675.00;109038;1269;22518;-81
2023/03/11 12:12:54;;;;;;;;;;;;;;;0.16;89.54;94672.52;109074;1267;22515;-81
2023/03/11 12:15:26;;;;;;;;;;;;;;;0.16;89.47;94664.65;109126;1266;22515;-81
2023/03/11 12:17:59;;;;;;;;;;;;;;;0.13;89.46;94672.66;109081;1273;22525;-81
2023/03/11 12:20:32;;;;;;;;;;;;;;;0.12;89.59;94692.35;109088;1268;22519;-80
2023/03/11 12:23:29;;;;;;;;;;;;;;;0.10;89.35;94699.64;109091;1267;22560;-81
2023/03/11 12:26:14;;;;;;;;;;;;;;;0.11;89.58;94714.60;109079;1273;22545;-81
2023/03/11 12:28:46;;;;;;;;;;;;;;;0.11;89.95;94717.27;109058;1270;23294;-80
2023/03/11 12:31:16;;;;;;;;;;;;;;;0.08;89.94;94732.79;109071;1269;22532;-80
2023/03/11 12:33:47;;;;;;;;;;;;;;;0.04;90.25;94730.28;109052;1273;22608;-80
2023/03/11 12:36:24;;;;;;;;;;;;;;;0.03;90.73;94754.61;109077;1268;24198;-81
2023/03/11 12:38:54;;;;;;;;;;;;;;;0.04;90.28;94756.64;109051;1273;22617;-80
2023/03/11 12:41:32;;;;;;;;;;;;;;;0.05;90.67;94756.39;109082;1270;22504;-80
2023/03/11 12:44:03;;;;;;;;;;;;;;;0.03;90.64;94762.22;109072;1273;22574;-80
2023/03/11 12:46:50;;;;;;;;;;;;;;;0.01;90.86;94767.38;109064;1273;25284;-80
2023/03/11 12:49:24;;;;;;;;;;;;;;;-0.00;91.12;94778.19;109105;1269;22651;-80
2023/03/11 12:52:04;;;;;;;;;;;;;;;-0.02;91.50;94796.73;109057;1269;22519;-81
2023/03/11 12:54:35;;;;;;;;;;;;;;;-0.07;91.83;94800.79;109061;1274;26802;-80
2023/03/11 12:57:09;;;;;;;;;;;;;;;-0.14;92.08;94802.80;109090;1273;22543;-81
2023/03/11 13:00:16;;;;;;;;;;;;;;;-0.21;92.92;94829.69;109057;1274;22450;-81
2023/03/11 13:02:56;;;;;;;;;;;;;;;-0.22;92.61;94840.10;108530;1274;22463;-80
2023/03/11 13:05:28;;;;;;;;;;;;;;;-0.26;92.16;94847.17;108523;1274;22527;-81